createdAt,value
2022-11-09T00:00:08.514Z,1003.72
2022-11-09T00:01:08.484Z,1003.76
2022-11-09T00:02:08.466Z,1003.80
2022-11-09T00:03:08.457Z,1003.75
2022-11-09T00:04:08.435Z,1003.73
2022-11-09T00:05:08.446Z,1003.67
2022-11-09T00:06:08.407Z,1003.67
2022-11-09T00:07:08.469Z,1003.67
2022-11-09T00:08:08.387Z,1003.60
2022-11-09T00:09:08.572Z,1003.65
2022-11-09T00:10:08.415Z,1003.65
2022-11-09T00:11:08.348Z,1003.69
2022-11-09T00:12:08.338Z,1003.71
2022-11-09T00:13:08.319Z,1003.72
2022-11-09T00:14:08.300Z,1003.74
2022-11-09T00:15:08.307Z,1003.76
2022-11-09T00:16:08.288Z,1003.71
2022-11-09T00:17:08.270Z,1003.71
2022-11-09T00:18:08.250Z,1003.69
2022-11-09T00:19:08.240Z,1003.66
2022-11-09T00:20:08.240Z,1003.69
2022-11-09T00:21:08.220Z,1003.64
2022-11-09T00:22:08.201Z,1003.63
2022-11-09T00:23:08.180Z,1003.64
2022-11-09T00:24:08.168Z,1003.62
2022-11-09T00:25:08.171Z,1003.59
2022-11-09T00:26:08.151Z,1003.59
2022-11-09T00:27:08.134Z,1003.61
2022-11-09T00:28:08.114Z,1003.64
2022-11-09T00:29:08.110Z,1003.68
2022-11-09T00:30:08.102Z,1003.65
2022-11-09T00:31:08.082Z,1003.62
2022-11-09T00:32:08.065Z,1003.58
2022-11-09T00:33:08.089Z,1003.54
2022-11-09T00:34:08.053Z,1003.50
2022-11-09T00:35:08.046Z,1003.47
2022-11-09T00:36:08.022Z,1003.43
2022-11-09T00:37:08.006Z,1003.47
2022-11-09T00:38:08.051Z,1003.52
2022-11-09T00:39:07.996Z,1003.50
2022-11-09T00:40:07.977Z,1003.50
2022-11-09T00:41:08.004Z,1003.51
2022-11-09T00:42:07.937Z,1003.51
2022-11-09T00:43:07.944Z,1003.47
2022-11-09T00:44:07.908Z,1003.45
2022-11-09T00:45:07.912Z,1003.46
2022-11-09T00:46:07.893Z,1003.45
2022-11-09T00:47:07.876Z,1003.44
2022-11-09T00:48:07.852Z,1003.44
2022-11-09T00:49:07.855Z,1003.39
2022-11-09T00:50:07.837Z,1003.38
2022-11-09T00:51:07.814Z,1003.48
2022-11-09T00:52:07.797Z,1003.41
2022-11-09T00:53:07.796Z,1003.47
2022-11-09T00:54:07.770Z,1003.43
2022-11-09T00:55:07.815Z,1003.43
2022-11-09T00:56:07.744Z,1003.52
2022-11-09T00:57:07.735Z,1003.51
2022-11-09T00:58:07.717Z,1003.53
2022-11-09T00:59:07.708Z,1003.55
2022-11-09T01:00:07.706Z,1003.50
2022-11-09T01:01:07.752Z,1003.53
2022-11-09T01:02:07.659Z,1003.55
2022-11-09T01:03:07.648Z,1003.55
2022-11-09T01:04:07.679Z,1003.54
2022-11-09T01:05:07.662Z,1003.57
2022-11-09T01:06:07.608Z,1003.55
2022-11-09T01:07:07.609Z,1003.56
2022-11-09T01:09:17.408Z,1003.50
2022-11-09T01:10:20.086Z,1003.53
2022-11-09T01:11:17.367Z,1003.54
2022-11-09T01:12:17.357Z,1003.54
2022-11-09T01:13:17.706Z,1003.62
2022-11-09T01:14:17.328Z,1003.59
2022-11-09T01:15:17.338Z,1003.68
2022-11-09T01:16:17.306Z,1003.62
2022-11-09T01:17:17.290Z,1003.64
2022-11-09T01:18:17.280Z,1003.67
2022-11-09T01:19:17.273Z,1003.64
2022-11-09T01:20:17.260Z,1003.65
2022-11-09T01:21:17.239Z,1003.71
2022-11-09T01:22:17.230Z,1003.72
2022-11-09T01:23:17.610Z,1003.71
2022-11-09T01:24:17.201Z,1003.74
2022-11-09T01:25:17.208Z,1003.75
2022-11-09T01:26:17.175Z,1003.83
2022-11-09T01:27:17.162Z,1003.81
2022-11-09T01:28:17.163Z,1003.82
2022-11-09T01:29:17.143Z,1003.84
2022-11-09T01:30:17.130Z,1003.83
2022-11-09T01:31:17.109Z,1003.80
2022-11-09T01:32:17.092Z,1003.81
2022-11-09T01:33:17.374Z,1003.82
2022-11-09T01:34:17.062Z,1003.76
2022-11-09T01:35:17.073Z,1003.73
2022-11-09T01:36:17.034Z,1003.81
2022-11-09T01:37:17.023Z,1003.78
2022-11-09T01:38:17.004Z,1003.82
2022-11-09T01:39:17.003Z,1003.81
2022-11-09T01:40:17.001Z,1003.87
2022-11-09T01:41:16.974Z,1003.92
2022-11-09T01:42:16.954Z,1003.92
2022-11-09T01:43:17.370Z,1003.94
2022-11-09T01:44:16.936Z,1003.88
2022-11-09T01:45:16.935Z,1003.86
2022-11-09T01:46:16.902Z,1003.86
2022-11-09T01:47:16.894Z,1003.88
2022-11-09T01:48:16.875Z,1003.87
2022-11-09T01:49:16.865Z,1003.83
2022-11-09T01:50:16.866Z,1003.86
2022-11-09T01:51:16.837Z,1003.86
2022-11-09T01:52:16.818Z,1003.85
2022-11-09T01:53:17.212Z,1003.85
2022-11-09T01:54:16.798Z,1003.86
2022-11-09T01:55:16.816Z,1003.83
2022-11-09T01:56:16.766Z,1003.88
2022-11-09T01:57:16.757Z,1003.84
2022-11-09T01:58:16.756Z,1003.84
2022-11-09T01:59:16.737Z,1003.87
2022-11-09T02:00:16.741Z,1003.83
2022-11-09T02:01:16.760Z,1003.86
2022-11-09T02:02:16.687Z,1003.80
2022-11-09T02:03:16.792Z,1003.79
2022-11-09T02:04:16.665Z,1003.82
2022-11-09T02:05:16.679Z,1003.77
2022-11-09T02:06:16.640Z,1003.76
2022-11-09T02:07:16.705Z,1003.76
2022-11-09T02:08:16.609Z,1003.78
2022-11-09T02:09:16.598Z,1003.76
2022-11-09T02:10:16.598Z,1003.77
2022-11-09T02:11:16.579Z,1003.76
2022-11-09T02:12:16.558Z,1003.73
2022-11-09T02:13:16.706Z,1003.77
2022-11-09T02:14:16.530Z,1003.81
2022-11-09T02:15:16.550Z,1003.76
2022-11-09T02:16:16.503Z,1003.78
2022-11-09T02:17:16.489Z,1003.82
2022-11-09T02:18:16.478Z,1003.82
2022-11-09T02:19:16.468Z,1003.81
2022-11-09T02:20:16.459Z,1003.82
2022-11-09T02:21:16.439Z,1003.83
2022-11-09T02:22:16.422Z,1003.84
2022-11-09T02:23:16.584Z,1003.84
2022-11-09T02:24:16.391Z,1003.81
2022-11-09T02:25:16.402Z,1003.76
2022-11-09T02:26:16.378Z,1003.77
2022-11-09T02:27:16.360Z,1003.77
2022-11-09T02:28:16.340Z,1003.74
2022-11-09T02:29:16.340Z,1003.78
2022-11-09T02:30:16.331Z,1003.82
2022-11-09T02:31:16.301Z,1003.81
2022-11-09T02:32:16.291Z,1003.79
2022-11-09T02:33:16.465Z,1003.81
2022-11-09T02:34:16.261Z,1003.78
2022-11-09T02:35:16.271Z,1003.82
2022-11-09T02:36:16.232Z,1003.76
2022-11-09T02:37:16.233Z,1003.76
2022-11-09T02:38:16.229Z,1003.81
2022-11-09T02:39:16.203Z,1003.82
2022-11-09T02:40:16.192Z,1003.88
2022-11-09T02:41:16.171Z,1003.79
2022-11-09T02:42:21.157Z,1003.82
2022-11-09T02:43:17.531Z,1003.79
2022-11-09T02:44:16.141Z,1003.84
2022-11-09T02:45:16.145Z,1003.79
2022-11-09T02:46:16.095Z,1003.82
2022-11-09T02:47:16.095Z,1003.77
2022-11-09T02:48:16.074Z,1003.76
2022-11-09T02:49:16.053Z,1003.73
2022-11-09T02:50:16.065Z,1003.74
2022-11-09T02:51:16.034Z,1003.72
2022-11-09T02:52:16.014Z,1003.72
2022-11-09T02:53:16.061Z,1003.72
2022-11-09T02:54:15.995Z,1003.71
2022-11-09T02:55:16.023Z,1003.74
2022-11-09T02:56:15.964Z,1003.76
2022-11-09T02:57:15.954Z,1003.75
2022-11-09T02:58:15.937Z,1003.82
2022-11-09T02:59:15.925Z,1003.80
2022-11-09T03:00:15.956Z,1003.79
2022-11-09T03:01:15.967Z,1003.77
2022-11-09T03:02:15.886Z,1003.81
2022-11-09T03:03:15.940Z,1003.78
2022-11-09T03:04:15.858Z,1003.82
2022-11-09T03:05:15.867Z,1003.79
2022-11-09T03:06:15.826Z,1003.85
2022-11-09T03:07:15.883Z,1003.87
2022-11-09T03:08:15.806Z,1003.84
2022-11-09T03:09:15.806Z,1003.91
2022-11-09T03:10:15.803Z,1003.88
2022-11-09T03:11:15.766Z,1003.90
2022-11-09T03:12:15.777Z,1003.86
2022-11-09T03:13:15.738Z,1003.87
2022-11-09T03:14:15.724Z,1003.84
2022-11-09T03:15:15.735Z,1003.86
2022-11-09T03:16:15.699Z,1003.86
2022-11-09T03:17:15.699Z,1003.88
2022-11-09T03:18:15.668Z,1003.86
2022-11-09T03:19:15.669Z,1003.86
2022-11-09T03:20:15.667Z,1003.87
2022-11-09T03:21:15.629Z,1003.91
2022-11-09T03:22:15.619Z,1003.92
2022-11-09T03:23:15.609Z,1003.94
2022-11-09T03:24:15.590Z,1003.93
2022-11-09T03:25:15.610Z,1003.89
2022-11-09T03:26:15.561Z,1003.89
2022-11-09T03:27:15.569Z,1003.88
2022-11-09T03:28:15.540Z,1003.89
2022-11-09T03:29:15.528Z,1003.87
2022-11-09T03:30:15.531Z,1003.83
2022-11-09T03:31:15.501Z,1003.87
2022-11-09T03:32:15.494Z,1003.91
2022-11-09T03:33:15.493Z,1003.87
2022-11-09T03:34:15.471Z,1003.91
2022-11-09T03:35:15.461Z,1003.86
2022-11-09T03:36:15.455Z,1003.95
2022-11-09T03:37:15.480Z,1003.94
2022-11-09T03:38:15.408Z,1003.95
2022-11-09T03:39:15.395Z,1003.90
2022-11-09T03:40:15.413Z,1003.93
2022-11-09T03:41:15.371Z,1003.93
2022-11-09T03:42:15.362Z,1003.91
2022-11-09T03:43:15.343Z,1003.99
2022-11-09T03:44:15.324Z,1004.00
2022-11-09T03:45:15.333Z,1003.99
2022-11-09T03:46:15.301Z,1003.96
2022-11-09T03:47:15.284Z,1004.01
2022-11-09T03:48:15.274Z,1004.00
2022-11-09T03:49:15.263Z,1004.04
2022-11-09T03:50:15.261Z,1004.10
2022-11-09T03:51:15.236Z,1004.08
2022-11-09T03:52:15.215Z,1004.15
2022-11-09T03:53:15.207Z,1004.16
2022-11-09T03:54:15.186Z,1004.12
2022-11-09T03:55:15.196Z,1004.09
2022-11-09T03:56:15.165Z,1004.14
2022-11-09T03:57:15.158Z,1004.10
2022-11-09T03:58:15.136Z,1004.11
2022-11-09T03:59:15.146Z,1004.14
2022-11-09T04:00:15.127Z,1004.15
2022-11-09T04:01:15.148Z,1004.13
2022-11-09T04:02:15.091Z,1004.15
2022-11-09T04:03:15.076Z,1004.13
2022-11-09T04:04:15.057Z,1004.11
2022-11-09T04:05:15.066Z,1004.17
2022-11-09T04:06:15.037Z,1004.20
2022-11-09T04:07:15.168Z,1004.19
2022-11-09T04:08:15.004Z,1004.20
2022-11-09T04:09:14.999Z,1004.18
2022-11-09T04:10:14.987Z,1004.14
2022-11-09T04:11:14.967Z,1004.21
2022-11-09T04:12:14.959Z,1004.22
2022-11-09T04:13:14.938Z,1004.22
2022-11-09T04:14:14.919Z,1004.19
2022-11-09T04:15:14.948Z,1004.22
2022-11-09T04:16:14.919Z,1004.16
2022-11-09T04:17:14.902Z,1004.17
2022-11-09T04:18:14.887Z,1004.11
2022-11-09T04:19:14.870Z,1004.17
2022-11-09T04:20:14.860Z,1004.13
2022-11-09T04:21:14.837Z,1004.15
2022-11-09T04:22:14.811Z,1004.14
2022-11-09T04:23:14.804Z,1004.16
2022-11-09T04:24:14.810Z,1004.15
2022-11-09T04:25:14.794Z,1004.17
2022-11-09T04:26:14.763Z,1004.17
2022-11-09T04:27:14.752Z,1004.19
2022-11-09T04:28:14.732Z,1004.19
2022-11-09T04:29:14.722Z,1004.19
2022-11-09T04:30:14.722Z,1004.16
2022-11-09T04:31:14.702Z,1004.18
2022-11-09T04:32:14.691Z,1004.19
2022-11-09T04:33:14.664Z,1004.20
2022-11-09T04:34:14.662Z,1004.22
2022-11-09T04:35:14.666Z,1004.24
2022-11-09T04:36:14.632Z,1004.27
2022-11-09T04:37:14.616Z,1004.24
2022-11-09T04:38:14.606Z,1004.27
2022-11-09T04:39:14.585Z,1004.32
2022-11-09T04:40:14.594Z,1004.37
2022-11-09T04:41:14.563Z,1004.43
2022-11-09T04:42:14.553Z,1004.44
2022-11-09T04:43:14.534Z,1004.39
2022-11-09T04:44:14.552Z,1004.43
2022-11-09T04:45:14.537Z,1004.47
2022-11-09T04:46:14.502Z,1004.45
2022-11-09T04:47:14.485Z,1004.42
2022-11-09T04:48:14.478Z,1004.46
2022-11-09T04:49:14.472Z,1004.50
2022-11-09T04:50:14.464Z,1004.51
2022-11-09T04:51:14.428Z,1004.56
2022-11-09T04:52:14.417Z,1004.54
2022-11-09T04:53:14.409Z,1004.56
2022-11-09T04:54:14.387Z,1004.49
2022-11-09T04:55:14.387Z,1004.52
2022-11-09T04:56:14.367Z,1004.52
2022-11-09T04:57:14.356Z,1004.55
2022-11-09T04:58:14.345Z,1004.59
2022-11-09T04:59:14.325Z,1004.56
2022-11-09T05:00:14.346Z,1004.58
2022-11-09T05:01:14.296Z,1004.57
2022-11-09T05:02:14.290Z,1004.56
2022-11-09T05:03:14.289Z,1004.56
2022-11-09T05:04:14.330Z,1004.64
2022-11-09T05:05:14.248Z,1004.64
2022-11-09T05:06:14.239Z,1004.57
2022-11-09T05:07:14.232Z,1004.58
2022-11-09T05:08:14.201Z,1004.60
2022-11-09T05:09:14.208Z,1004.58
2022-11-09T05:10:14.182Z,1004.57
2022-11-09T05:11:14.160Z,1004.61
2022-11-09T05:12:14.149Z,1004.59
2022-11-09T05:13:14.140Z,1004.60
2022-11-09T05:14:14.140Z,1004.61
2022-11-09T05:15:14.129Z,1004.62
2022-11-09T05:16:14.110Z,1004.67
2022-11-09T05:17:14.080Z,1004.68
2022-11-09T05:18:14.090Z,1004.63
2022-11-09T05:19:14.057Z,1004.61
2022-11-09T05:20:14.063Z,1004.63
2022-11-09T05:21:14.023Z,1004.59
2022-11-09T05:22:14.021Z,1004.67
2022-11-09T05:23:14.001Z,1004.64
2022-11-09T05:24:13.992Z,1004.65
2022-11-09T05:25:14.232Z,1004.60
2022-11-09T05:26:17.785Z,1004.62
2022-11-09T05:27:13.942Z,1004.57
2022-11-09T05:28:13.943Z,1004.58
2022-11-09T05:29:13.944Z,1004.59
2022-11-09T05:30:13.905Z,1004.62
2022-11-09T05:31:13.914Z,1004.63
2022-11-09T05:32:13.893Z,1004.68
2022-11-09T05:33:13.863Z,1004.66
2022-11-09T05:34:13.891Z,1004.64
2022-11-09T05:35:13.848Z,1004.65
2022-11-09T05:36:13.855Z,1004.64
2022-11-09T05:37:13.814Z,1004.65
2022-11-09T05:38:13.804Z,1004.69
2022-11-09T05:39:13.795Z,1004.71
2022-11-09T05:40:13.795Z,1004.68
2022-11-09T05:41:13.756Z,1004.68
2022-11-09T05:42:13.757Z,1004.60
2022-11-09T05:43:13.733Z,1004.51
2022-11-09T05:44:13.726Z,1004.55
2022-11-09T05:46:14.695Z,1004.50
2022-11-09T05:47:13.679Z,1004.53
2022-11-09T05:48:13.678Z,1004.47
2022-11-09T05:49:13.650Z,1004.45
2022-11-09T05:50:13.669Z,1004.45
2022-11-09T05:51:13.646Z,1004.40
2022-11-09T05:52:13.618Z,1004.40
2022-11-09T05:53:13.605Z,1004.37
2022-11-09T05:54:13.586Z,1004.41
2022-11-09T05:55:13.588Z,1004.38
2022-11-09T05:56:13.570Z,1004.37
2022-11-09T05:57:13.557Z,1004.34
2022-11-09T05:58:13.541Z,1004.32
2022-11-09T05:59:13.547Z,1004.36
2022-11-09T06:00:13.535Z,1004.35
2022-11-09T06:01:13.499Z,1004.33
2022-11-09T06:02:13.520Z,1004.42
2022-11-09T06:03:13.468Z,1004.42
2022-11-09T06:04:13.457Z,1004.42
2022-11-09T06:05:13.460Z,1004.41
2022-11-09T06:06:13.440Z,1004.35
2022-11-09T06:07:13.488Z,1004.34
2022-11-09T06:08:13.404Z,1004.38
2022-11-09T06:09:13.386Z,1004.37
2022-11-09T06:10:13.400Z,1004.38
2022-11-09T06:11:18.245Z,1004.37
2022-11-09T06:12:14.369Z,1004.40
2022-11-09T06:13:13.350Z,1004.42
2022-11-09T06:14:13.321Z,1004.43
2022-11-09T06:15:13.330Z,1004.45
2022-11-09T06:16:13.293Z,1004.42
2022-11-09T06:17:13.293Z,1004.42
2022-11-09T06:18:13.263Z,1004.40
2022-11-09T06:19:13.253Z,1004.44
2022-11-09T06:20:13.263Z,1004.43
2022-11-09T06:21:13.230Z,1004.49
2022-11-09T06:22:13.227Z,1004.51
2022-11-09T06:23:13.192Z,1004.46
2022-11-09T06:24:13.192Z,1004.48
2022-11-09T06:25:13.192Z,1004.51
2022-11-09T06:26:13.214Z,1004.45
2022-11-09T06:27:13.143Z,1004.52
2022-11-09T06:28:13.132Z,1004.52
2022-11-09T06:29:13.142Z,1004.57
2022-11-09T06:30:13.139Z,1004.57
2022-11-09T06:31:13.093Z,1004.55
2022-11-09T06:32:13.093Z,1004.53
2022-11-09T06:33:13.064Z,1004.56
2022-11-09T06:34:13.054Z,1004.60
2022-11-09T06:35:13.054Z,1004.54
2022-11-09T06:36:13.037Z,1004.64
2022-11-09T06:37:13.015Z,1004.62
2022-11-09T06:38:13.007Z,1004.64
2022-11-09T06:39:12.984Z,1004.63
2022-11-09T06:40:12.994Z,1004.66
2022-11-09T06:41:12.996Z,1004.71
2022-11-09T06:42:13.004Z,1004.65
2022-11-09T06:43:12.925Z,1004.70
2022-11-09T06:44:12.925Z,1004.67
2022-11-09T06:45:12.926Z,1004.76
2022-11-09T06:46:12.896Z,1004.72
2022-11-09T06:47:12.878Z,1004.75
2022-11-09T06:48:12.895Z,1004.78
2022-11-09T06:49:12.902Z,1004.80
2022-11-09T06:50:12.857Z,1004.81
2022-11-09T06:51:12.827Z,1004.81
2022-11-09T06:52:12.817Z,1004.80
2022-11-09T06:53:12.796Z,1004.77
2022-11-09T06:54:12.787Z,1004.83
2022-11-09T06:55:12.787Z,1004.83
2022-11-09T06:56:12.759Z,1004.84
2022-11-09T06:57:12.751Z,1004.83
2022-11-09T06:58:12.762Z,1004.84
2022-11-09T06:59:12.720Z,1004.85
2022-11-09T07:00:12.746Z,1004.91
2022-11-09T07:01:12.872Z,1004.94
2022-11-09T07:02:12.688Z,1004.93
2022-11-09T07:03:12.659Z,1004.93
2022-11-09T07:04:12.660Z,1005.00
2022-11-09T07:05:12.657Z,1004.97
2022-11-09T07:06:12.630Z,1004.99
2022-11-09T07:07:12.670Z,1004.99
2022-11-09T07:08:12.608Z,1005.00
2022-11-09T07:09:12.594Z,1005.07
2022-11-09T07:10:12.589Z,1005.08
2022-11-09T07:11:12.679Z,1005.08
2022-11-09T07:12:12.550Z,1005.11
2022-11-09T07:13:12.571Z,1005.14
2022-11-09T07:14:12.520Z,1005.15
2022-11-09T07:15:12.544Z,1005.19
2022-11-09T07:16:12.859Z,1005.17
2022-11-09T07:17:12.482Z,1005.13
2022-11-09T07:18:12.473Z,1005.18
2022-11-09T07:19:12.452Z,1005.16
2022-11-09T07:20:12.459Z,1005.12
2022-11-09T07:21:14.306Z,1005.18
2022-11-09T07:22:12.418Z,1005.21
2022-11-09T07:23:12.404Z,1005.13
2022-11-09T07:24:12.383Z,1005.18
2022-11-09T07:25:12.393Z,1005.19
2022-11-09T07:26:12.628Z,1005.20
2022-11-09T07:27:12.343Z,1005.16
2022-11-09T07:28:12.349Z,1005.24
2022-11-09T07:29:12.334Z,1005.22
2022-11-09T07:30:12.313Z,1005.21
2022-11-09T07:31:12.413Z,1005.23
2022-11-09T07:32:12.304Z,1005.26
2022-11-09T07:33:12.276Z,1005.23
2022-11-09T07:34:12.272Z,1005.23
2022-11-09T07:35:12.256Z,1005.23
2022-11-09T07:36:14.591Z,1005.25
2022-11-09T07:37:13.216Z,1005.27
2022-11-09T07:38:12.217Z,1005.24
2022-11-09T07:39:12.207Z,1005.21
2022-11-09T07:40:12.188Z,1005.24
2022-11-09T07:41:12.156Z,1005.19
2022-11-09T07:42:12.148Z,1005.21
2022-11-09T07:43:12.125Z,1005.26
2022-11-09T07:44:12.155Z,1005.23
2022-11-09T07:45:12.107Z,1005.26
2022-11-09T07:46:12.095Z,1005.30
2022-11-09T07:47:17.173Z,1005.28
2022-11-09T07:48:13.069Z,1005.31
2022-11-09T07:49:12.067Z,1005.27
2022-11-09T07:50:12.039Z,1005.26
2022-11-09T07:51:12.019Z,1005.29
2022-11-09T07:52:12.052Z,1005.27
2022-11-09T07:53:12.008Z,1005.31
2022-11-09T07:54:12.011Z,1005.24
2022-11-09T07:55:11.967Z,1005.31
2022-11-09T07:56:11.966Z,1005.30
2022-11-09T07:57:11.938Z,1005.27
2022-11-09T07:58:11.952Z,1005.32
2022-11-09T07:59:11.917Z,1005.32
2022-11-09T08:00:11.919Z,1005.32
2022-11-09T08:01:11.887Z,1005.36
2022-11-09T08:02:11.981Z,1005.32
2022-11-09T08:03:11.860Z,1005.38
2022-11-09T08:04:11.855Z,1005.36
2022-11-09T08:05:11.883Z,1005.36
2022-11-09T08:06:17.136Z,1005.36
2022-11-09T08:07:12.930Z,1005.36
2022-11-09T08:08:11.829Z,1005.38
2022-11-09T08:09:11.781Z,1005.41
2022-11-09T08:10:11.788Z,1005.40
2022-11-09T08:11:11.750Z,1005.42
2022-11-09T08:12:11.773Z,1005.43
2022-11-09T08:13:12.678Z,1005.43
2022-11-09T08:14:11.729Z,1005.47
2022-11-09T08:15:11.723Z,1005.50
2022-11-09T08:16:11.702Z,1005.48
2022-11-09T08:17:11.688Z,1005.49
2022-11-09T08:18:11.700Z,1005.51
2022-11-09T08:19:11.642Z,1005.51
2022-11-09T08:20:11.659Z,1005.51
2022-11-09T08:21:11.630Z,1005.52
2022-11-09T08:22:11.630Z,1005.52
2022-11-09T08:23:11.600Z,1005.52
2022-11-09T08:24:11.588Z,1005.54
2022-11-09T08:25:11.580Z,1005.54
2022-11-09T08:26:11.569Z,1005.55
2022-11-09T08:27:11.540Z,1005.52
2022-11-09T08:28:14.710Z,1005.53
2022-11-09T08:29:11.521Z,1005.55
2022-11-09T08:30:18.536Z,1005.59
2022-11-09T08:31:13.147Z,1005.57
2022-11-09T08:32:14.115Z,1005.62
2022-11-09T08:33:11.456Z,1005.60
2022-11-09T08:34:11.455Z,1005.63
2022-11-09T08:35:11.450Z,1005.62
2022-11-09T08:36:11.423Z,1005.65
2022-11-09T08:37:11.396Z,1005.61
2022-11-09T08:38:11.386Z,1005.65
2022-11-09T08:39:11.380Z,1005.65
2022-11-09T08:40:11.386Z,1005.66
2022-11-09T08:41:13.645Z,1005.72
2022-11-09T08:42:11.340Z,1005.71
2022-11-09T08:43:11.327Z,1005.67
2022-11-09T08:44:11.307Z,1005.69
2022-11-09T08:45:11.297Z,1005.66
2022-11-09T08:46:11.307Z,1005.69
2022-11-09T08:47:11.268Z,1005.59
2022-11-09T08:48:11.255Z,1005.62
2022-11-09T08:49:11.258Z,1005.63
2022-11-09T08:50:11.248Z,1005.67
2022-11-09T08:51:11.230Z,1005.64
2022-11-09T08:52:11.210Z,1005.65
2022-11-09T08:53:11.189Z,1005.65
2022-11-09T08:54:11.185Z,1005.67
2022-11-09T08:55:11.169Z,1005.74
2022-11-09T08:56:11.169Z,1005.70
2022-11-09T08:57:11.140Z,1005.71
2022-11-09T08:58:11.123Z,1005.71
2022-11-09T08:59:11.118Z,1005.72
2022-11-09T09:00:11.094Z,1005.76
2022-11-09T09:01:16.697Z,1005.73
2022-11-09T09:02:12.133Z,1005.71
2022-11-09T09:03:11.062Z,1005.64
2022-11-09T09:04:11.042Z,1005.62
2022-11-09T09:05:11.042Z,1005.70
2022-11-09T09:06:11.030Z,1005.68
2022-11-09T09:07:11.072Z,1005.61
2022-11-09T09:08:11.004Z,1005.62
2022-11-09T09:09:10.981Z,1005.72
2022-11-09T09:10:10.963Z,1005.73
2022-11-09T09:11:10.972Z,1005.66
2022-11-09T09:12:10.937Z,1005.69
2022-11-09T09:13:10.946Z,1005.68
2022-11-09T09:14:10.933Z,1005.70
2022-11-09T09:15:10.901Z,1005.64
2022-11-09T09:16:10.900Z,1005.69
2022-11-09T09:17:10.875Z,1005.67
2022-11-09T09:18:10.870Z,1005.66
2022-11-09T09:19:10.864Z,1005.65
2022-11-09T09:20:10.825Z,1005.71
2022-11-09T09:21:10.843Z,1005.68
2022-11-09T09:22:10.804Z,1005.72
2022-11-09T09:23:10.802Z,1005.76
2022-11-09T09:24:10.775Z,1005.76
2022-11-09T09:25:10.774Z,1005.78
2022-11-09T09:26:10.765Z,1005.78
2022-11-09T09:27:10.743Z,1005.87
2022-11-09T09:28:10.771Z,1005.77
2022-11-09T09:29:10.716Z,1005.69
2022-11-09T09:30:10.725Z,1005.77
2022-11-09T09:31:14.306Z,1005.77
2022-11-09T09:32:11.668Z,1005.74
2022-11-09T09:33:10.665Z,1005.80
2022-11-09T09:34:10.646Z,1005.77
2022-11-09T09:35:10.656Z,1005.73
2022-11-09T09:36:10.617Z,1005.75
2022-11-09T09:37:10.608Z,1005.74
2022-11-09T09:38:10.590Z,1005.79
2022-11-09T09:39:10.577Z,1005.81
2022-11-09T09:40:10.576Z,1005.83
2022-11-09T09:41:10.569Z,1005.78
2022-11-09T09:42:10.538Z,1005.84
2022-11-09T09:43:10.528Z,1005.84
2022-11-09T09:44:10.517Z,1005.84
2022-11-09T09:45:10.498Z,1005.89
2022-11-09T09:46:10.499Z,1005.92
2022-11-09T09:47:10.477Z,1005.95
2022-11-09T09:48:10.469Z,1005.98
2022-11-09T09:49:10.458Z,1005.97
2022-11-09T09:50:10.513Z,1006.00
2022-11-09T09:51:10.439Z,1006.00
2022-11-09T09:52:10.402Z,1005.98
2022-11-09T09:53:23.737Z,1006.00
2022-11-09T09:54:11.380Z,1005.99
2022-11-09T09:55:10.370Z,1005.97
2022-11-09T09:56:10.372Z,1006.01
2022-11-09T09:57:10.342Z,1006.03
2022-11-09T09:58:10.440Z,1006.01
2022-11-09T09:59:10.319Z,1006.06
2022-11-09T10:00:10.292Z,1006.04
2022-11-09T10:01:10.302Z,1006.12
2022-11-09T10:02:10.281Z,1006.12
2022-11-09T10:03:10.265Z,1006.14
2022-11-09T10:04:10.301Z,1006.14
2022-11-09T10:05:10.233Z,1006.17
2022-11-09T10:06:10.235Z,1006.16
2022-11-09T10:07:10.271Z,1006.14
2022-11-09T10:08:10.183Z,1006.18
2022-11-09T10:09:10.182Z,1006.11
2022-11-09T10:10:10.182Z,1006.26
2022-11-09T10:11:10.154Z,1006.23
2022-11-09T10:12:10.136Z,1006.21
2022-11-09T10:13:10.124Z,1006.25
2022-11-09T10:14:10.114Z,1006.18
2022-11-09T10:15:10.124Z,1006.11
2022-11-09T10:16:10.076Z,1006.23
2022-11-09T10:17:10.074Z,1006.21
2022-11-09T10:18:10.062Z,1006.23
2022-11-09T10:19:10.054Z,1006.28
2022-11-09T10:20:10.053Z,1006.24
2022-11-09T10:21:10.026Z,1006.19
2022-11-09T10:22:10.008Z,1006.26
2022-11-09T10:23:09.995Z,1006.27
2022-11-09T10:24:09.977Z,1006.21
2022-11-09T10:25:27.422Z,1006.26
2022-11-09T10:26:15.401Z,1006.26
2022-11-09T10:27:09.938Z,1006.28
2022-11-09T10:28:13.018Z,1006.31
2022-11-09T10:29:16.175Z,1006.26
2022-11-09T10:30:10.905Z,1006.23
2022-11-09T10:31:09.893Z,1006.27
2022-11-09T10:32:09.876Z,1006.24
2022-11-09T10:33:09.858Z,1006.29
2022-11-09T10:34:09.847Z,1006.31
2022-11-09T10:35:09.857Z,1006.28
2022-11-09T10:36:09.819Z,1006.31
2022-11-09T10:37:09.811Z,1006.32
2022-11-09T10:38:09.791Z,1006.35
2022-11-09T10:39:09.783Z,1006.38
2022-11-09T10:40:09.782Z,1006.29
2022-11-09T10:41:09.755Z,1006.37
2022-11-09T10:42:09.748Z,1006.36
2022-11-09T10:43:09.730Z,1006.41
2022-11-09T10:44:13.481Z,1006.40
2022-11-09T10:45:10.720Z,1006.39
2022-11-09T10:46:09.680Z,1006.42
2022-11-09T10:47:09.672Z,1006.39
2022-11-09T10:48:09.680Z,1006.40
2022-11-09T10:49:09.652Z,1006.36
2022-11-09T10:50:09.640Z,1006.33
2022-11-09T10:51:09.622Z,1006.33
2022-11-09T10:52:09.603Z,1006.25
2022-11-09T10:53:09.591Z,1006.23
2022-11-09T10:54:09.579Z,1006.16
2022-11-09T10:55:09.581Z,1006.21
2022-11-09T10:56:09.550Z,1006.17
2022-11-09T10:57:09.543Z,1006.11
2022-11-09T10:58:09.533Z,1006.18
2022-11-09T10:59:09.522Z,1006.07
2022-11-09T11:00:09.510Z,1006.13
2022-11-09T11:01:09.555Z,1006.14
2022-11-09T11:02:09.508Z,1006.09
2022-11-09T11:03:09.461Z,1006.08
2022-11-09T11:04:09.445Z,1006.03
2022-11-09T11:05:09.517Z,1006.14
2022-11-09T11:06:09.425Z,1006.02
2022-11-09T11:07:09.445Z,1005.94
2022-11-09T11:08:09.397Z,1006.05
2022-11-09T11:09:09.385Z,1006.06
2022-11-09T11:10:09.386Z,1006.12
2022-11-09T11:11:31.981Z,1006.04
2022-11-09T11:12:10.336Z,1005.96
2022-11-09T11:13:09.345Z,1006.05
2022-11-09T11:14:09.308Z,1006.09
2022-11-09T11:15:09.324Z,1006.08
2022-11-09T11:16:09.278Z,1006.11
2022-11-09T11:17:09.280Z,1006.14
2022-11-09T11:18:09.280Z,1006.10
2022-11-09T11:19:09.258Z,1006.13
2022-11-09T11:20:09.240Z,1006.16
2022-11-09T11:21:09.221Z,1006.10
2022-11-09T11:22:09.208Z,1006.23
2022-11-09T11:23:09.190Z,1006.17
2022-11-09T11:24:09.181Z,1006.22
2022-11-09T11:25:09.181Z,1006.19
2022-11-09T11:26:09.151Z,1006.27
2022-11-09T11:27:10.642Z,1006.09
2022-11-09T11:28:09.122Z,1006.22
2022-11-09T11:29:09.113Z,1006.22
2022-11-09T11:30:09.112Z,1006.19
2022-11-09T11:31:09.113Z,1006.13
2022-11-09T11:32:09.072Z,1006.16
2022-11-09T11:33:09.072Z,1006.13
2022-11-09T11:34:09.066Z,1006.16
2022-11-09T11:35:09.056Z,1006.15
2022-11-09T11:36:09.018Z,1006.16
2022-11-09T11:37:09.013Z,1006.16
2022-11-09T11:38:08.991Z,1006.18
2022-11-09T11:39:08.983Z,1006.18
2022-11-09T11:40:08.988Z,1006.29
2022-11-09T11:41:08.956Z,1006.28
2022-11-09T11:42:08.935Z,1006.23
2022-11-09T11:43:08.927Z,1006.25
2022-11-09T11:44:08.928Z,1006.26
2022-11-09T11:45:38.421Z,1006.24
2022-11-09T11:46:09.905Z,1006.23
2022-11-09T11:47:08.876Z,1006.20
2022-11-09T11:48:08.859Z,1006.20
2022-11-09T11:49:08.858Z,1006.17
2022-11-09T11:50:08.848Z,1006.25
2022-11-09T11:51:08.818Z,1006.29
2022-11-09T11:52:08.815Z,1006.32
2022-11-09T11:53:08.799Z,1006.29
2022-11-09T11:54:08.787Z,1006.29
2022-11-09T11:55:08.788Z,1006.29
2022-11-09T11:56:08.750Z,1006.22
2022-11-09T11:57:08.749Z,1006.30
2022-11-09T11:58:08.728Z,1006.31
2022-11-09T11:59:08.718Z,1006.34
2022-11-09T12:00:08.710Z,1006.29
2022-11-09T12:01:08.691Z,1006.31
2022-11-09T12:02:08.763Z,1006.33
2022-11-09T12:03:08.773Z,1006.35
2022-11-09T12:04:08.651Z,1006.37
2022-11-09T12:05:08.655Z,1006.32
2022-11-09T12:06:08.620Z,1006.35
2022-11-09T12:07:08.640Z,1006.45